sensor_id;sensor_type;location;lat;lon;timestamp;P1;durP1;ratioP1;P2;durP2;ratioP2
75941;SDS011;64622;46.220;19.878;2023-04-25T00:01:59;66.28;;;33.60;;
75941;SDS011;64622;46.220;19.878;2023-04-25T00:04:26;59.42;;;33.17;;
75941;SDS011;64622;46.220;19.878;2023-04-25T00:06:53;57.87;;;30.97;;
75941;SDS011;64622;46.220;19.878;2023-04-25T00:09:20;59.03;;;27.85;;
75941;SDS011;64622;46.220;19.878;2023-04-25T00:11:47;53.67;;;26.87;;
75941;SDS011;64622;46.220;19.878;2023-04-25T00:14:14;46.37;;;24.35;;
75941;SDS011;64622;46.220;19.878;2023-04-25T00:16:41;38.88;;;20.85;;
75941;SDS011;64622;46.220;19.878;2023-04-25T00:19:10;34.57;;;19.77;;
75941;SDS011;64622;46.220;19.878;2023-04-25T00:21:37;32.45;;;19.08;;
75941;SDS011;64622;46.220;19.878;2023-04-25T00:24:06;37.00;;;20.50;;
75941;SDS011;64622;46.220;19.878;2023-04-25T00:26:34;33.97;;;17.90;;
75941;SDS011;64622;46.220;19.878;2023-04-25T00:29:02;29.48;;;15.23;;
75941;SDS011;64622;46.220;19.878;2023-04-25T00:31:29;27.10;;;15.60;;
75941;SDS011;64622;46.220;19.878;2023-04-25T00:33:56;28.52;;;15.98;;
75941;SDS011;64622;46.220;19.878;2023-04-25T00:36:23;27.10;;;14.93;;
75941;SDS011;64622;46.220;19.878;2023-04-25T00:38:49;25.75;;;13.50;;
75941;SDS011;64622;46.220;19.878;2023-04-25T00:41:16;25.60;;;13.55;;
75941;SDS011;64622;46.220;19.878;2023-04-25T00:43:45;27.70;;;13.67;;
75941;SDS011;64622;46.220;19.878;2023-04-25T00:46:13;29.17;;;15.95;;
75941;SDS011;64622;46.220;19.878;2023-04-25T00:48:40;26.05;;;13.50;;
75941;SDS011;64622;46.220;19.878;2023-04-25T00:51:06;26.15;;;14.52;;
75941;SDS011;64622;46.220;19.878;2023-04-25T00:53:34;30.02;;;14.65;;
75941;SDS011;64622;46.220;19.878;2023-04-25T00:56:01;26.53;;;13.93;;
75941;SDS011;64622;46.220;19.878;2023-04-25T00:58:28;26.75;;;13.77;;
75941;SDS011;64622;46.220;19.878;2023-04-25T01:00:55;24.23;;;12.65;;
75941;SDS011;64622;46.220;19.878;2023-04-25T01:03:23;23.45;;;13.05;;
75941;SDS011;64622;46.220;19.878;2023-04-25T01:05:50;26.30;;;13.57;;
75941;SDS011;64622;46.220;19.878;2023-04-25T01:08:23;27.80;;;12.87;;
75941;SDS011;64622;46.220;19.878;2023-04-25T01:10:54;23.20;;;10.98;;
75941;SDS011;64622;46.220;19.878;2023-04-25T01:13:20;21.50;;;11.90;;
75941;SDS011;64622;46.220;19.878;2023-04-25T01:15:47;21.95;;;10.93;;
75941;SDS011;64622;46.220;19.878;2023-04-25T01:18:14;19.77;;;10.73;;
75941;SDS011;64622;46.220;19.878;2023-04-25T01:20:41;20.97;;;10.70;;
75941;SDS011;64622;46.220;19.878;2023-04-25T01:23:08;20.95;;;9.18;;
75941;SDS011;64622;46.220;19.878;2023-04-25T01:25:36;19.60;;;10.30;;
75941;SDS011;64622;46.220;19.878;2023-04-25T01:28:03;20.33;;;10.43;;
75941;SDS011;64622;46.220;19.878;2023-04-25T01:30:31;17.45;;;9.80;;
75941;SDS011;64622;46.220;19.878;2023-04-25T01:32:58;20.70;;;9.47;;
75941;SDS011;64622;46.220;19.878;2023-04-25T01:35:28;19.77;;;9.98;;
75941;SDS011;64622;46.220;19.878;2023-04-25T01:37:55;19.83;;;10.52;;
75941;SDS011;64622;46.220;19.878;2023-04-25T01:40:22;21.58;;;11.23;;
75941;SDS011;64622;46.220;19.878;2023-04-25T01:42:50;19.35;;;10.02;;
75941;SDS011;64622;46.220;19.878;2023-04-25T01:45:18;21.17;;;10.17;;
75941;SDS011;64622;46.220;19.878;2023-04-25T01:47:45;17.00;;;7.55;;
75941;SDS011;64622;46.220;19.878;2023-04-25T01:50:16;18.42;;;9.15;;
75941;SDS011;64622;46.220;19.878;2023-04-25T01:52:44;18.45;;;9.10;;
75941;SDS011;64622;46.220;19.878;2023-04-25T01:55:11;20.70;;;10.15;;
75941;SDS011;64622;46.220;19.878;2023-04-25T01:57:38;22.97;;;10.53;;
75941;SDS011;64622;46.220;19.878;2023-04-25T02:00:06;21.73;;;10.63;;
75941;SDS011;64622;46.220;19.878;2023-04-25T02:02:38;20.15;;;11.00;;
75941;SDS011;64622;46.220;19.878;2023-04-25T02:05:06;18.33;;;9.00;;
75941;SDS011;64622;46.220;19.878;2023-04-25T02:07:34;21.85;;;10.07;;
75941;SDS011;64622;46.220;19.878;2023-04-25T02:10:01;20.07;;;10.40;;
75941;SDS011;64622;46.220;19.878;2023-04-25T02:12:30;20.35;;;10.32;;
75941;SDS011;64622;46.220;19.878;2023-04-25T02:14:58;18.75;;;10.90;;
75941;SDS011;64622;46.220;19.878;2023-04-25T02:17:25;18.80;;;8.95;;
75941;SDS011;64622;46.220;19.878;2023-04-25T02:19:52;15.77;;;7.50;;
75941;SDS011;64622;46.220;19.878;2023-04-25T02:22:19;16.27;;;8.30;;
75941;SDS011;64622;46.220;19.878;2023-04-25T02:24:46;12.35;;;6.32;;
75941;SDS011;64622;46.220;19.878;2023-04-25T02:27:12;16.17;;;8.20;;
75941;SDS011;64622;46.220;19.878;2023-04-25T02:29:39;17.30;;;8.63;;
75941;SDS011;64622;46.220;19.878;2023-04-25T02:32:06;20.70;;;9.35;;
75941;SDS011;64622;46.220;19.878;2023-04-25T02:34:32;18.40;;;8.73;;
75941;SDS011;64622;46.220;19.878;2023-04-25T02:37:00;15.55;;;7.35;;
75941;SDS011;64622;46.220;19.878;2023-04-25T02:39:27;16.77;;;8.05;;
75941;SDS011;64622;46.220;19.878;2023-04-25T02:41:55;13.88;;;6.47;;
75941;SDS011;64622;46.220;19.878;2023-04-25T02:44:22;14.95;;;7.25;;
75941;SDS011;64622;46.220;19.878;2023-04-25T02:46:48;11.03;;;4.73;;
75941;SDS011;64622;46.220;19.878;2023-04-25T02:49:15;12.80;;;6.57;;
75941;SDS011;64622;46.220;19.878;2023-04-25T02:51:42;14.43;;;7.28;;
75941;SDS011;64622;46.220;19.878;2023-04-25T02:54:09;14.77;;;6.80;;
75941;SDS011;64622;46.220;19.878;2023-04-25T02:56:36;14.80;;;6.97;;
75941;SDS011;64622;46.220;19.878;2023-04-25T02:59:04;14.67;;;7.40;;
75941;SDS011;64622;46.220;19.878;2023-04-25T03:01:32;13.65;;;6.43;;
75941;SDS011;64622;46.220;19.878;2023-04-25T03:03:58;13.73;;;7.10;;
75941;SDS011;64622;46.220;19.878;2023-04-25T03:06:25;13.98;;;6.43;;
75941;SDS011;64622;46.220;19.878;2023-04-25T03:08:52;13.15;;;6.57;;
75941;SDS011;64622;46.220;19.878;2023-04-25T03:11:19;15.67;;;7.47;;
75941;SDS011;64622;46.220;19.878;2023-04-25T03:13:46;14.55;;;7.40;;
75941;SDS011;64622;46.220;19.878;2023-04-25T03:16:13;15.05;;;7.20;;
75941;SDS011;64622;46.220;19.878;2023-04-25T03:18:40;12.65;;;6.15;;
75941;SDS011;64622;46.220;19.878;2023-04-25T03:21:07;13.45;;;7.28;;
75941;SDS011;64622;46.220;19.878;2023-04-25T03:23:33;11.90;;;6.47;;
75941;SDS011;64622;46.220;19.878;2023-04-25T03:26:00;13.45;;;6.70;;
75941;SDS011;64622;46.220;19.878;2023-04-25T03:28:27;13.23;;;6.30;;
75941;SDS011;64622;46.220;19.878;2023-04-25T03:30:54;13.93;;;7.20;;
75941;SDS011;64622;46.220;19.878;2023-04-25T03:33:21;14.75;;;6.72;;
75941;SDS011;64622;46.220;19.878;2023-04-25T03:35:48;11.77;;;5.20;;
75941;SDS011;64622;46.220;19.878;2023-04-25T03:38:16;15.52;;;7.28;;
75941;SDS011;64622;46.220;19.878;2023-04-25T03:40:43;15.05;;;7.35;;
75941;SDS011;64622;46.220;19.878;2023-04-25T03:43:11;12.55;;;5.95;;
75941;SDS011;64622;46.220;19.878;2023-04-25T03:45:39;12.70;;;5.93;;
75941;SDS011;64622;46.220;19.878;2023-04-25T03:48:06;13.10;;;6.67;;
75941;SDS011;64622;46.220;19.878;2023-04-25T03:50:33;11.93;;;6.40;;
75941;SDS011;64622;46.220;19.878;2023-04-25T03:53:00;12.85;;;6.00;;
75941;SDS011;64622;46.220;19.878;2023-04-25T03:55:28;13.68;;;6.68;;
75941;SDS011;64622;46.220;19.878;2023-04-25T03:57:55;11.63;;;5.68;;
75941;SDS011;64622;46.220;19.878;2023-04-25T04:00:25;13.60;;;6.63;;
75941;SDS011;64622;46.220;19.878;2023-04-25T04:02:53;14.10;;;6.35;;
75941;SDS011;64622;46.220;19.878;2023-04-25T04:05:19;12.73;;;6.85;;
75941;SDS011;64622;46.220;19.878;2023-04-25T04:07:47;11.00;;;5.75;;
75941;SDS011;64622;46.220;19.878;2023-04-25T04:10:13;11.98;;;5.40;;
75941;SDS011;64622;46.220;19.878;2023-04-25T04:12:40;12.50;;;6.13;;
75941;SDS011;64622;46.220;19.878;2023-04-25T04:15:07;15.48;;;6.22;;
75941;SDS011;64622;46.220;19.878;2023-04-25T04:17:35;11.57;;;5.15;;
75941;SDS011;64622;46.220;19.878;2023-04-25T04:20:01;11.98;;;5.22;;
75941;SDS011;64622;46.220;19.878;2023-04-25T04:22:31;13.80;;;5.90;;
75941;SDS011;64622;46.220;19.878;2023-04-25T04:24:58;11.57;;;6.27;;
75941;SDS011;64622;46.220;19.878;2023-04-25T04:27:29;11.10;;;5.30;;
75941;SDS011;64622;46.220;19.878;2023-04-25T04:29:57;11.60;;;5.10;;
75941;SDS011;64622;46.220;19.878;2023-04-25T04:32:24;12.45;;;5.60;;
75941;SDS011;64622;46.220;19.878;2023-04-25T04:34:52;12.73;;;5.40;;
75941;SDS011;64622;46.220;19.878;2023-04-25T04:37:21;12.40;;;4.43;;
75941;SDS011;64622;46.220;19.878;2023-04-25T04:39:49;10.98;;;5.22;;
75941;SDS011;64622;46.220;19.878;2023-04-25T04:42:17;10.20;;;5.20;;
75941;SDS011;64622;46.220;19.878;2023-04-25T04:44:44;9.00;;;4.07;;
75941;SDS011;64622;46.220;19.878;2023-04-25T04:47:11;7.80;;;3.37;;
75941;SDS011;64622;46.220;19.878;2023-04-25T04:49:41;9.77;;;4.87;;
75941;SDS011;64622;46.220;19.878;2023-04-25T04:52:09;10.70;;;4.10;;
75941;SDS011;64622;46.220;19.878;2023-04-25T04:54:36;11.85;;;4.78;;
75941;SDS011;64622;46.220;19.878;2023-04-25T04:57:03;10.50;;;4.87;;
75941;SDS011;64622;46.220;19.878;2023-04-25T04:59:31;11.12;;;4.72;;
75941;SDS011;64622;46.220;19.878;2023-04-25T05:01:58;9.00;;;4.30;;
75941;SDS011;64622;46.220;19.878;2023-04-25T05:04:25;10.27;;;4.65;;
75941;SDS011;64622;46.220;19.878;2023-04-25T05:06:52;12.73;;;5.18;;
75941;SDS011;64622;46.220;19.878;2023-04-25T05:09:19;9.45;;;4.05;;
75941;SDS011;64622;46.220;19.878;2023-04-25T05:11:46;9.43;;;3.65;;
75941;SDS011;64622;46.220;19.878;2023-04-25T05:14:12;10.70;;;4.73;;
75941;SDS011;64622;46.220;19.878;2023-04-25T05:16:40;8.52;;;3.78;;
75941;SDS011;64622;46.220;19.878;2023-04-25T05:19:06;9.32;;;4.30;;
75941;SDS011;64622;46.220;19.878;2023-04-25T05:21:33;11.23;;;5.43;;
75941;SDS011;64622;46.220;19.878;2023-04-25T05:24:01;13.30;;;5.20;;
75941;SDS011;64622;46.220;19.878;2023-04-25T05:26:29;11.13;;;5.73;;
75941;SDS011;64622;46.220;19.878;2023-04-25T05:28:57;10.05;;;4.85;;
75941;SDS011;64622;46.220;19.878;2023-04-25T05:31:24;10.70;;;4.28;;
75941;SDS011;64622;46.220;19.878;2023-04-25T05:33:52;13.77;;;5.18;;
75941;SDS011;64622;46.220;19.878;2023-04-25T05:36:19;9.18;;;3.72;;
75941;SDS011;64622;46.220;19.878;2023-04-25T05:38:46;10.50;;;4.93;;
75941;SDS011;64622;46.220;19.878;2023-04-25T05:41:14;9.57;;;4.65;;
75941;SDS011;64622;46.220;19.878;2023-04-25T05:43:41;11.48;;;4.78;;
75941;SDS011;64622;46.220;19.878;2023-04-25T05:46:14;9.52;;;4.45;;
75941;SDS011;64622;46.220;19.878;2023-04-25T05:48:42;11.25;;;4.75;;
75941;SDS011;64622;46.220;19.878;2023-04-25T05:51:09;9.50;;;4.43;;
75941;SDS011;64622;46.220;19.878;2023-04-25T05:53:36;9.68;;;4.03;;
75941;SDS011;64622;46.220;19.878;2023-04-25T05:56:03;9.82;;;4.85;;
75941;SDS011;64622;46.220;19.878;2023-04-25T05:58:31;9.82;;;4.37;;
75941;SDS011;64622;46.220;19.878;2023-04-25T06:00:58;11.60;;;5.15;;
75941;SDS011;64622;46.220;19.878;2023-04-25T06:03:31;9.90;;;4.07;;
75941;SDS011;64622;46.220;19.878;2023-04-25T06:05:58;9.75;;;4.10;;
75941;SDS011;64622;46.220;19.878;2023-04-25T06:08:25;10.18;;;4.00;;
75941;SDS011;64622;46.220;19.878;2023-04-25T06:10:52;10.02;;;4.60;;
75941;SDS011;64622;46.220;19.878;2023-04-25T06:13:18;8.57;;;4.18;;
75941;SDS011;64622;46.220;19.878;2023-04-25T06:15:45;11.60;;;4.60;;
75941;SDS011;64622;46.220;19.878;2023-04-25T06:18:12;11.55;;;3.70;;
75941;SDS011;64622;46.220;19.878;2023-04-25T06:20:38;10.98;;;4.12;;
75941;SDS011;64622;46.220;19.878;2023-04-25T06:23:06;9.80;;;4.20;;
75941;SDS011;64622;46.220;19.878;2023-04-25T06:25:34;8.93;;;3.97;;
75941;SDS011;64622;46.220;19.878;2023-04-25T06:28:01;9.57;;;4.07;;
75941;SDS011;64622;46.220;19.878;2023-04-25T06:30:29;9.68;;;4.50;;
75941;SDS011;64622;46.220;19.878;2023-04-25T06:32:56;9.70;;;4.10;;
75941;SDS011;64622;46.220;19.878;2023-04-25T06:35:23;7.82;;;3.47;;
75941;SDS011;64622;46.220;19.878;2023-04-25T06:37:50;10.82;;;4.28;;
75941;SDS011;64622;46.220;19.878;2023-04-25T06:40:18;7.90;;;3.33;;
75941;SDS011;64622;46.220;19.878;2023-04-25T06:42:45;9.65;;;4.20;;
75941;SDS011;64622;46.220;19.878;2023-04-25T06:45:19;8.10;;;3.17;;
75941;SDS011;64622;46.220;19.878;2023-04-25T06:47:46;8.50;;;3.42;;
75941;SDS011;64622;46.220;19.878;2023-04-25T06:50:12;8.82;;;3.37;;
75941;SDS011;64622;46.220;19.878;2023-04-25T06:52:39;9.00;;;3.30;;
75941;SDS011;64622;46.220;19.878;2023-04-25T06:55:06;8.73;;;2.97;;
75941;SDS011;64622;46.220;19.878;2023-04-25T06:57:34;10.10;;;3.90;;
75941;SDS011;64622;46.220;19.878;2023-04-25T07:00:03;8.25;;;3.25;;
75941;SDS011;64622;46.220;19.878;2023-04-25T07:02:32;7.57;;;2.60;;
75941;SDS011;64622;46.220;19.878;2023-04-25T07:04:58;11.63;;;4.90;;
75941;SDS011;64622;46.220;19.878;2023-04-25T07:07:26;8.00;;;3.00;;
75941;SDS011;64622;46.220;19.878;2023-04-25T07:09:53;9.68;;;4.25;;
75941;SDS011;64622;46.220;19.878;2023-04-25T07:12:20;8.35;;;3.60;;
75941;SDS011;64622;46.220;19.878;2023-04-25T07:14:48;8.43;;;3.80;;
75941;SDS011;64622;46.220;19.878;2023-04-25T07:17:14;8.33;;;3.77;;
75941;SDS011;64622;46.220;19.878;2023-04-25T07:19:41;7.78;;;3.50;;
75941;SDS011;64622;46.220;19.878;2023-04-25T07:22:10;8.48;;;3.72;;
75941;SDS011;64622;46.220;19.878;2023-04-25T07:24:37;8.75;;;3.10;;
75941;SDS011;64622;46.220;19.878;2023-04-25T07:27:04;8.88;;;4.07;;
75941;SDS011;64622;46.220;19.878;2023-04-25T07:29:31;8.50;;;3.17;;
75941;SDS011;64622;46.220;19.878;2023-04-25T07:31:58;7.62;;;3.20;;
75941;SDS011;64622;46.220;19.878;2023-04-25T07:34:25;8.32;;;3.50;;
75941;SDS011;64622;46.220;19.878;2023-04-25T07:36:52;8.95;;;3.70;;
75941;SDS011;64622;46.220;19.878;2023-04-25T07:39:20;8.82;;;4.10;;
75941;SDS011;64622;46.220;19.878;2023-04-25T07:41:46;10.03;;;3.60;;
75941;SDS011;64622;46.220;19.878;2023-04-25T07:44:13;9.35;;;3.05;;
75941;SDS011;64622;46.220;19.878;2023-04-25T07:46:40;7.97;;;3.03;;
75941;SDS011;64622;46.220;19.878;2023-04-25T07:49:08;8.45;;;3.15;;
75941;SDS011;64622;46.220;19.878;2023-04-25T07:51:36;7.65;;;3.37;;
75941;SDS011;64622;46.220;19.878;2023-04-25T07:54:04;8.73;;;3.40;;
75941;SDS011;64622;46.220;19.878;2023-04-25T07:56:33;7.47;;;2.65;;
75941;SDS011;64622;46.220;19.878;2023-04-25T07:59:00;7.43;;;3.00;;
75941;SDS011;64622;46.220;19.878;2023-04-25T08:01:26;6.40;;;1.92;;
75941;SDS011;64622;46.220;19.878;2023-04-25T08:03:55;7.93;;;2.80;;
75941;SDS011;64622;46.220;19.878;2023-04-25T08:06:22;6.67;;;2.33;;
75941;SDS011;64622;46.220;19.878;2023-04-25T08:08:49;6.53;;;2.30;;
75941;SDS011;64622;46.220;19.878;2023-04-25T08:11:17;6.35;;;2.60;;
75941;SDS011;64622;46.220;19.878;2023-04-25T08:13:43;7.00;;;2.55;;
75941;SDS011;64622;46.220;19.878;2023-04-25T08:16:10;6.80;;;2.65;;
75941;SDS011;64622;46.220;19.878;2023-04-25T08:18:37;9.40;;;2.37;;
75941;SDS011;64622;46.220;19.878;2023-04-25T08:21:04;6.85;;;2.70;;
75941;SDS011;64622;46.220;19.878;2023-04-25T08:23:30;7.07;;;2.45;;
75941;SDS011;64622;46.220;19.878;2023-04-25T08:25:58;9.75;;;2.50;;
75941;SDS011;64622;46.220;19.878;2023-04-25T08:28:25;6.60;;;2.42;;
75941;SDS011;64622;46.220;19.878;2023-04-25T08:30:52;7.27;;;2.70;;
75941;SDS011;64622;46.220;19.878;2023-04-25T08:33:19;7.60;;;3.03;;
75941;SDS011;64622;46.220;19.878;2023-04-25T08:35:46;6.78;;;2.75;;
75941;SDS011;64622;46.220;19.878;2023-04-25T08:38:13;7.28;;;2.50;;
75941;SDS011;64622;46.220;19.878;2023-04-25T08:40:41;8.07;;;2.97;;
75941;SDS011;64622;46.220;19.878;2023-04-25T08:43:09;7.47;;;2.73;;
75941;SDS011;64622;46.220;19.878;2023-04-25T08:45:41;5.80;;;2.20;;
75941;SDS011;64622;46.220;19.878;2023-04-25T08:48:10;6.90;;;3.00;;
75941;SDS011;64622;46.220;19.878;2023-04-25T08:50:59;6.65;;;2.60;;
75941;SDS011;64622;46.220;19.878;2023-04-25T08:53:26;7.62;;;2.40;;
75941;SDS011;64622;46.220;19.878;2023-04-25T08:55:54;7.73;;;2.50;;
75941;SDS011;64622;46.220;19.878;2023-04-25T08:58:23;7.00;;;2.60;;
75941;SDS011;64622;46.220;19.878;2023-04-25T09:00:51;5.90;;;1.92;;
75941;SDS011;64622;46.220;19.878;2023-04-25T09:03:19;7.25;;;2.25;;
75941;SDS011;64622;46.220;19.878;2023-04-25T09:05:47;6.10;;;2.15;;
75941;SDS011;64622;46.220;19.878;2023-04-25T09:08:15;9.77;;;2.20;;
75941;SDS011;64622;46.220;19.878;2023-04-25T09:10:42;10.32;;;1.90;;
75941;SDS011;64622;46.220;19.878;2023-04-25T09:13:09;6.07;;;1.70;;
75941;SDS011;64622;46.220;19.878;2023-04-25T09:15:53;5.18;;;1.58;;
75941;SDS011;64622;46.220;19.878;2023-04-25T09:20:55;5.23;;;1.57;;
75941;SDS011;64622;46.220;19.878;2023-04-25T09:23:23;8.07;;;1.85;;
75941;SDS011;64622;46.220;19.878;2023-04-25T09:25:52;5.93;;;1.70;;
75941;SDS011;64622;46.220;19.878;2023-04-25T09:28:24;6.43;;;1.90;;
75941;SDS011;64622;46.220;19.878;2023-04-25T09:30:55;5.90;;;1.62;;
75941;SDS011;64622;46.220;19.878;2023-04-25T09:33:30;6.23;;;1.90;;
75941;SDS011;64622;46.220;19.878;2023-04-25T09:36:08;6.72;;;2.12;;
75941;SDS011;64622;46.220;19.878;2023-04-25T09:38:41;6.62;;;2.30;;
75941;SDS011;64622;46.220;19.878;2023-04-25T09:41:12;6.05;;;2.00;;
75941;SDS011;64622;46.220;19.878;2023-04-25T09:43:39;5.70;;;1.92;;
75941;SDS011;64622;46.220;19.878;2023-04-25T09:46:09;5.90;;;1.80;;
75941;SDS011;64622;46.220;19.878;2023-04-25T09:48:39;7.00;;;2.05;;
75941;SDS011;64622;46.220;19.878;2023-04-25T09:51:06;6.45;;;2.22;;
75941;SDS011;64622;46.220;19.878;2023-04-25T09:53:35;6.25;;;2.05;;
75941;SDS011;64622;46.220;19.878;2023-04-25T09:56:04;10.57;;;2.10;;
75941;SDS011;64622;46.220;19.878;2023-04-25T09:58:33;6.43;;;2.10;;
75941;SDS011;64622;46.220;19.878;2023-04-25T10:01:02;7.03;;;1.48;;
75941;SDS011;64622;46.220;19.878;2023-04-25T10:03:34;5.85;;;1.60;;
75941;SDS011;64622;46.220;19.878;2023-04-25T10:06:05;5.87;;;1.85;;
75941;SDS011;64622;46.220;19.878;2023-04-25T10:08:35;6.00;;;1.62;;
75941;SDS011;64622;46.220;19.878;2023-04-25T10:11:06;5.37;;;1.50;;
75941;SDS011;64622;46.220;19.878;2023-04-25T10:13:35;6.55;;;1.48;;
75941;SDS011;64622;46.220;19.878;2023-04-25T10:16:03;5.87;;;1.55;;
75941;SDS011;64622;46.220;19.878;2023-04-25T10:18:31;6.25;;;1.42;;
75941;SDS011;64622;46.220;19.878;2023-04-25T10:21:00;5.12;;;1.40;;
75941;SDS011;64622;46.220;19.878;2023-04-25T10:23:30;5.47;;;1.43;;
75941;SDS011;64622;46.220;19.878;2023-04-25T10:25:57;5.43;;;1.45;;
75941;SDS011;64622;46.220;19.878;2023-04-25T10:28:25;4.93;;;1.20;;
75941;SDS011;64622;46.220;19.878;2023-04-25T10:30:58;9.57;;;1.33;;
75941;SDS011;64622;46.220;19.878;2023-04-25T10:33:36;5.72;;;1.70;;
75941;SDS011;64622;46.220;19.878;2023-04-25T10:36:14;6.93;;;1.50;;
75941;SDS011;64622;46.220;19.878;2023-04-25T10:38:44;4.72;;;1.20;;
75941;SDS011;64622;46.220;19.878;2023-04-25T10:41:12;4.93;;;1.10;;
75941;SDS011;64622;46.220;19.878;2023-04-25T10:46:14;5.37;;;1.27;;
75941;SDS011;64622;46.220;19.878;2023-04-25T10:48:48;5.33;;;1.63;;
75941;SDS011;64622;46.220;19.878;2023-04-25T10:53:47;6.32;;;2.00;;
75941;SDS011;64622;46.220;19.878;2023-04-25T10:56:26;5.55;;;1.60;;
75941;SDS011;64622;46.220;19.878;2023-04-25T11:04:23;5.75;;;1.80;;
75941;SDS011;64622;46.220;19.878;2023-04-25T11:07:02;7.47;;;2.42;;
75941;SDS011;64622;46.220;19.878;2023-04-25T11:09:39;8.35;;;3.60;;
75941;SDS011;64622;46.220;19.878;2023-04-25T11:12:09;5.57;;;2.00;;
75941;SDS011;64622;46.220;19.878;2023-04-25T11:14:37;8.70;;;2.00;;
75941;SDS011;64622;46.220;19.878;2023-04-25T11:17:04;7.93;;;2.25;;
75941;SDS011;64622;46.220;19.878;2023-04-25T11:19:32;6.60;;;2.72;;
75941;SDS011;64622;46.220;19.878;2023-04-25T11:21:59;6.50;;;2.42;;
75941;SDS011;64622;46.220;19.878;2023-04-25T11:24:30;8.05;;;2.30;;
75941;SDS011;64622;46.220;19.878;2023-04-25T11:27:02;10.70;;;2.10;;
75941;SDS011;64622;46.220;19.878;2023-04-25T11:29:30;7.47;;;2.20;;
75941;SDS011;64622;46.220;19.878;2023-04-25T11:31:57;5.85;;;1.80;;
75941;SDS011;64622;46.220;19.878;2023-04-25T11:34:25;5.68;;;1.70;;
75941;SDS011;64622;46.220;19.878;2023-04-25T11:36:52;8.60;;;2.12;;
75941;SDS011;64622;46.220;19.878;2023-04-25T11:39:19;6.60;;;1.73;;
75941;SDS011;64622;46.220;19.878;2023-04-25T11:41:47;7.72;;;1.92;;
75941;SDS011;64622;46.220;19.878;2023-04-25T11:44:17;13.30;;;4.68;;
75941;SDS011;64622;46.220;19.878;2023-04-25T11:46:45;5.95;;;1.40;;
75941;SDS011;64622;46.220;19.878;2023-04-25T11:49:12;6.78;;;2.20;;
75941;SDS011;64622;46.220;19.878;2023-04-25T11:54:10;6.05;;;1.70;;
75941;SDS011;64622;46.220;19.878;2023-04-25T11:56:41;6.97;;;2.40;;
75941;SDS011;64622;46.220;19.878;2023-04-25T11:59:09;6.57;;;2.00;;
75941;SDS011;64622;46.220;19.878;2023-04-25T12:01:37;6.00;;;1.73;;
75941;SDS011;64622;46.220;19.878;2023-04-25T12:04:12;8.73;;;2.50;;
75941;SDS011;64622;46.220;19.878;2023-04-25T12:06:47;6.93;;;1.65;;
75941;SDS011;64622;46.220;19.878;2023-04-25T12:09:16;5.65;;;1.58;;
75941;SDS011;64622;46.220;19.878;2023-04-25T12:11:48;5.25;;;1.40;;
75941;SDS011;64622;46.220;19.878;2023-04-25T12:14:21;5.53;;;1.80;;
75941;SDS011;64622;46.220;19.878;2023-04-25T12:16:50;5.83;;;1.73;;
75941;SDS011;64622;46.220;19.878;2023-04-25T12:19:20;8.82;;;1.62;;
75941;SDS011;64622;46.220;19.878;2023-04-25T12:21:47;8.13;;;1.70;;
75941;SDS011;64622;46.220;19.878;2023-04-25T12:24:33;6.15;;;1.52;;
75941;SDS011;64622;46.220;19.878;2023-04-25T12:27:01;7.00;;;1.55;;
75941;SDS011;64622;46.220;19.878;2023-04-25T12:29:30;4.77;;;1.17;;
75941;SDS011;64622;46.220;19.878;2023-04-25T12:31:58;5.28;;;1.30;;
75941;SDS011;64622;46.220;19.878;2023-04-25T12:34:26;6.70;;;1.27;;
75941;SDS011;64622;46.220;19.878;2023-04-25T12:36:53;5.25;;;1.40;;
75941;SDS011;64622;46.220;19.878;2023-04-25T12:39:21;5.25;;;1.60;;
75941;SDS011;64622;46.220;19.878;2023-04-25T12:41:50;5.20;;;1.33;;
75941;SDS011;64622;46.220;19.878;2023-04-25T12:44:18;5.90;;;2.05;;
75941;SDS011;64622;46.220;19.878;2023-04-25T12:46:44;6.32;;;1.98;;
75941;SDS011;64622;46.220;19.878;2023-04-25T12:49:11;6.95;;;2.10;;
75941;SDS011;64622;46.220;19.878;2023-04-25T12:51:38;6.53;;;2.12;;
75941;SDS011;64622;46.220;19.878;2023-04-25T12:54:05;6.90;;;2.20;;
75941;SDS011;64622;46.220;19.878;2023-04-25T12:56:33;5.85;;;1.77;;
75941;SDS011;64622;46.220;19.878;2023-04-25T12:59:01;6.32;;;2.28;;
75941;SDS011;64622;46.220;19.878;2023-04-25T13:01:31;6.70;;;2.30;;
75941;SDS011;64622;46.220;19.878;2023-04-25T13:03:58;8.10;;;2.10;;
75941;SDS011;64622;46.220;19.878;2023-04-25T13:06:24;5.27;;;1.60;;
75941;SDS011;64622;46.220;19.878;2023-04-25T13:08:52;6.72;;;2.22;;
75941;SDS011;64622;46.220;19.878;2023-04-25T13:11:19;7.90;;;2.60;;
75941;SDS011;64622;46.220;19.878;2023-04-25T13:13:45;7.72;;;2.67;;
75941;SDS011;64622;46.220;19.878;2023-04-25T13:16:11;6.65;;;2.05;;
75941;SDS011;64622;46.220;19.878;2023-04-25T13:18:42;7.23;;;2.70;;
75941;SDS011;64622;46.220;19.878;2023-04-25T13:21:09;6.85;;;2.40;;
75941;SDS011;64622;46.220;19.878;2023-04-25T13:23:37;7.68;;;2.40;;
75941;SDS011;64622;46.220;19.878;2023-04-25T13:26:03;6.10;;;1.85;;
75941;SDS011;64622;46.220;19.878;2023-04-25T13:28:30;5.93;;;1.95;;
75941;SDS011;64622;46.220;19.878;2023-04-25T13:30:57;5.80;;;1.87;;
75941;SDS011;64622;46.220;19.878;2023-04-25T13:33:24;4.47;;;1.23;;
75941;SDS011;64622;46.220;19.878;2023-04-25T13:35:51;5.30;;;1.65;;
75941;SDS011;64622;46.220;19.878;2023-04-25T13:38:23;5.43;;;1.35;;
75941;SDS011;64622;46.220;19.878;2023-04-25T13:40:51;7.62;;;1.52;;
75941;SDS011;64622;46.220;19.878;2023-04-25T13:43:19;5.13;;;1.50;;
75941;SDS011;64622;46.220;19.878;2023-04-25T13:45:48;4.80;;;1.25;;
75941;SDS011;64622;46.220;19.878;2023-04-25T13:48:15;4.70;;;1.30;;
75941;SDS011;64622;46.220;19.878;2023-04-25T13:50:42;6.18;;;1.48;;
75941;SDS011;64622;46.220;19.878;2023-04-25T13:53:09;6.03;;;1.40;;
75941;SDS011;64622;46.220;19.878;2023-04-25T13:55:36;4.37;;;1.17;;
75941;SDS011;64622;46.220;19.878;2023-04-25T13:58:03;4.30;;;1.10;;
75941;SDS011;64622;46.220;19.878;2023-04-25T14:00:37;5.15;;;1.50;;
75941;SDS011;64622;46.220;19.878;2023-04-25T14:03:05;4.28;;;1.30;;
75941;SDS011;64622;46.220;19.878;2023-04-25T14:05:33;7.62;;;1.40;;
75941;SDS011;64622;46.220;19.878;2023-04-25T14:08:07;9.10;;;1.50;;
75941;SDS011;64622;46.220;19.878;2023-04-25T14:10:36;6.05;;;1.40;;
75941;SDS011;64622;46.220;19.878;2023-04-25T14:13:03;5.47;;;1.33;;
75941;SDS011;64622;46.220;19.878;2023-04-25T14:15:31;5.07;;;1.52;;
75941;SDS011;64622;46.220;19.878;2023-04-25T14:17:59;5.85;;;1.80;;
75941;SDS011;64622;46.220;19.878;2023-04-25T14:20:26;6.27;;;1.20;;
75941;SDS011;64622;46.220;19.878;2023-04-25T14:22:53;7.25;;;1.58;;
75941;SDS011;64622;46.220;19.878;2023-04-25T14:25:22;7.43;;;1.40;;
75941;SDS011;64622;46.220;19.878;2023-04-25T14:27:49;4.70;;;1.23;;
75941;SDS011;64622;46.220;19.878;2023-04-25T14:30:17;5.95;;;1.73;;
75941;SDS011;64622;46.220;19.878;2023-04-25T14:32:45;6.43;;;1.60;;
75941;SDS011;64622;46.220;19.878;2023-04-25T14:35:11;5.90;;;1.33;;
75941;SDS011;64622;46.220;19.878;2023-04-25T14:37:38;7.75;;;1.50;;
75941;SDS011;64622;46.220;19.878;2023-04-25T14:40:06;4.75;;;1.10;;
75941;SDS011;64622;46.220;19.878;2023-04-25T14:42:38;3.92;;;1.00;;
75941;SDS011;64622;46.220;19.878;2023-04-25T14:45:06;6.47;;;1.20;;
75941;SDS011;64622;46.220;19.878;2023-04-25T14:47:37;5.78;;;1.15;;
75941;SDS011;64622;46.220;19.878;2023-04-25T14:50:04;3.10;;;0.60;;